Time;durP1;ratioP1;P1;durP2;ratioP2;P2;SDS_P1;SDS_P2;PMS_P1;PMS_P2;Temp;Humidity;BMP_temperature;BMP_pressure;BME280_temperature;BME280_humidity;BME280_pressure;Samples;Min_cycle;Max_cycle;Signal;HPM_P1;HPM_P2
2021/03/26 00:01:53;;;;;;;;;;;18.40;43.60;;;;;;5035908;28;19908;-70
2021/03/26 00:04:19;;;;;;;;;;;18.40;43.50;;;;;;5056455;28;19909;-70
2021/03/26 00:06:47;;;;;;;;;;;18.30;43.80;;;;;;5056405;28;19905;-70
2021/03/26 00:09:15;;;;;;;;;;;18.40;44.00;;;;;;5039179;28;19913;-69
2021/03/26 00:11:41;;;;;;;;;;;18.50;43.70;;;;;;5055186;28;20322;-69
2021/03/26 00:14:07;;;;;;;;;;;18.70;42.80;;;;;;5056236;28;19908;-69
2021/03/26 00:16:33;;;;;;;;;;;18.50;43.50;;;;;;5056910;28;19905;-70
2021/03/26 00:18:59;;;;;;;;;;;18.50;43.60;;;;;;5056163;28;19931;-70
2021/03/26 00:21:25;;;;;;;;;;;18.50;43.30;;;;;;5050398;28;20359;-70
2021/03/26 00:23:51;;;;;;;;;;;18.50;43.20;;;;;;5034215;28;20007;-70
2021/03/26 00:26:18;;;;;;;;;;;18.30;43.00;;;;;;5051537;28;20286;-70
2021/03/26 00:28:44;;;;;;;;;;;18.30;43.30;;;;;;5051450;28;19935;-70
2021/03/26 00:31:10;;;;;;;;;;;18.50;41.90;;;;;;5052586;28;20231;-70
2021/03/26 00:33:36;;;;;;;;;;;18.30;42.50;;;;;;5047832;28;20053;-71
2021/03/26 00:36:03;;;;;;;;;;;18.10;42.30;;;;;;5049543;28;19921;-71
2021/03/26 00:38:29;;;;;;;;;;;17.90;42.60;;;;;;5031747;28;20398;-71
2021/03/26 00:40:55;;;;;;;;;;;17.80;43.20;;;;;;5056131;28;19940;-72
2021/03/26 00:43:21;;;;;;;;;;;17.60;43.50;;;;;;5056021;28;19909;-69
2021/03/26 00:45:47;;;;;;;;;;;17.50;43.80;;;;;;5054538;28;19913;-72
2021/03/26 00:48:14;;;;;;;;;;;17.30;44.20;;;;;;5056568;28;19912;-70
2021/03/26 00:50:41;;;;;;;;;;;17.10;44.30;;;;;;5057580;28;20334;-71
2021/03/26 00:53:12;;;;;;;;;;;17.10;45.20;;;;;;5055614;28;19999;-70
2021/03/26 00:55:38;;;;;;;;;;;17.00;45.60;;;;;;5056188;28;20261;-69
2021/03/26 00:58:04;;;;;;;;;;;16.80;45.90;;;;;;5054269;28;19917;-70
2021/03/26 01:00:31;;;;;;;;;;;16.70;45.90;;;;;;5056188;28;19904;-70
2021/03/26 01:02:57;;;;;;;;;;;16.90;46.00;;;;;;5056408;28;20223;-70
2021/03/26 01:05:25;;;;;;;;;;;17.00;45.80;;;;;;5055441;28;19912;-70
2021/03/26 01:07:51;;;;;;;;;;;16.80;45.80;;;;;;5055526;28;19908;-70
2021/03/26 01:10:18;;;;;;;;;;;17.00;45.70;;;;;;5056010;28;19909;-70
2021/03/26 01:12:44;;;;;;;;;;;16.90;45.60;;;;;;5055344;28;19916;-70
2021/03/26 01:15:12;;;;;;;;;;;16.90;46.10;;;;;;5055893;28;19909;-70
2021/03/26 01:17:39;;;;;;;;;;;16.90;45.70;;;;;;5054723;28;20361;-70
2021/03/26 01:20:09;;;;;;;;;;;16.70;46.80;;;;;;5036520;28;19920;-70
2021/03/26 01:22:35;;;;;;;;;;;16.70;45.90;;;;;;5049143;28;19909;-70
2021/03/26 01:25:04;;;;;;;;;;;16.60;46.10;;;;;;5044408;28;19943;-70
2021/03/26 01:27:30;;;;;;;;;;;16.50;46.30;;;;;;5051518;28;19916;-70
2021/03/26 01:29:56;;;;;;;;;;;16.30;47.00;;;;;;5034912;28;19923;-70
2021/03/26 01:32:22;;;;;;;;;;;16.30;47.10;;;;;;5047316;28;20277;-69
2021/03/26 01:34:48;;;;;;;;;;;16.40;47.10;;;;;;5055473;28;20250;-70
2021/03/26 01:37:14;;;;;;;;;;;16.10;47.70;;;;;;5055562;28;19913;-70
2021/03/26 01:39:40;;;;;;;;;;;16.20;47.40;;;;;;5050355;28;19919;-70
2021/03/26 01:42:26;;;;;;;;;;;15.90;48.00;;;;;;5037577;28;19904;-70
2021/03/26 01:44:52;;;;;;;;;;;15.90;47.70;;;;;;5054080;28;19958;-70
2021/03/26 01:47:19;;;;;;;;;;;15.70;48.40;;;;;;5037206;28;20324;-70
2021/03/26 01:49:45;;;;;;;;;;;15.70;48.00;;;;;;5053098;28;19909;-70
2021/03/26 01:52:11;;;;;;;;;;;15.60;47.90;;;;;;5050205;28;19916;-70
2021/03/26 01:54:37;;;;;;;;;;;15.40;48.20;;;;;;5052814;28;19908;-70
2021/03/26 01:57:03;;;;;;;;;;;15.30;48.50;;;;;;5054016;28;19931;-70
2021/03/26 01:59:29;;;;;;;;;;;15.40;48.30;;;;;;5052880;28;19963;-71
2021/03/26 02:02:00;;;;;;;;;;;15.50;48.40;;;;;;5051565;28;19920;-71
2021/03/26 02:04:30;;;;;;;;;;;15.40;48.20;;;;;;5050993;28;19975;-71
2021/03/26 02:06:57;;;;;;;;;;;15.30;48.70;;;;;;5054975;28;19908;-71
2021/03/26 02:09:24;;;;;;;;;;;15.30;48.80;;;;;;5053004;28;19916;-70
2021/03/26 02:11:59;;;;;;;;;;;15.10;48.60;;;;;;5054052;28;19927;-70
2021/03/26 02:14:35;;;;;;;;;;;15.00;49.20;;;;;;5053542;28;19915;-71
2021/03/26 02:17:01;;;;;;;;;;;15.00;49.20;;;;;;5046459;28;19966;-70
2021/03/26 02:19:30;;;;;;;;;;;14.90;49.30;;;;;;5050679;28;20183;-71
2021/03/26 02:21:56;;;;;;;;;;;14.90;49.50;;;;;;5042876;28;19909;-70
2021/03/26 02:24:23;;;;;;;;;;;14.90;49.00;;;;;;5051299;28;19928;-71
2021/03/26 02:26:51;;;;;;;;;;;14.70;50.40;;;;;;5046677;28;20014;-71
2021/03/26 02:29:27;;;;;;;;;;;14.90;51.00;;;;;;5029745;28;19913;-71
2021/03/26 02:32:01;;;;;;;;;;;14.90;49.80;;;;;;5051510;28;19924;-71
2021/03/26 02:34:28;;;;;;;;;;;14.80;50.40;;;;;;5050798;28;19913;-72
2021/03/26 02:36:58;;;;;;;;;;;14.70;49.50;;;;;;5049472;28;19916;-72
2021/03/26 02:39:30;;;;;;;;;;;14.50;50.70;;;;;;5053219;28;20038;-71
2021/03/26 02:41:59;;;;;;;;;;;14.50;50.40;;;;;;5037919;28;19912;-72
2021/03/26 02:44:29;;;;;;;;;;;14.40;50.70;;;;;;5053013;28;20361;-72
2021/03/26 02:47:13;;;;;;;;;;;14.40;50.80;;;;;;5053467;28;19991;-73
2021/03/26 02:49:48;;;;;;;;;;;14.20;52.10;;;;;;5053157;28;19962;-72
2021/03/26 02:52:34;;;;;;;;;;;14.00;52.10;;;;;;5052789;28;19927;-72
2021/03/26 02:55:06;;;;;;;;;;;13.90;52.20;;;;;;5043464;28;19909;-72
2021/03/26 02:57:37;;;;;;;;;;;13.80;52.20;;;;;;5054819;28;19909;-72
2021/03/26 03:00:12;;;;;;;;;;;14.00;52.60;;;;;;5055181;28;19909;-72
2021/03/26 03:02:39;;;;;;;;;;;14.00;52.50;;;;;;5038075;28;19915;-72
2021/03/26 03:05:16;;;;;;;;;;;14.00;52.20;;;;;;5054563;28;19913;-72
2021/03/26 03:07:47;;;;;;;;;;;13.70;52.50;;;;;;5054356;28;19913;-72
2021/03/26 03:10:22;;;;;;;;;;;13.90;52.20;;;;;;5056065;28;19915;-72
2021/03/26 03:12:50;;;;;;;;;;;13.80;51.80;;;;;;5055477;28;19917;-72
2021/03/26 03:15:24;;;;;;;;;;;13.80;52.30;;;;;;5037541;28;20330;-72
2021/03/26 03:17:59;;;;;;;;;;;14.00;52.60;;;;;;5055179;28;19916;-72
2021/03/26 03:20:33;;;;;;;;;;;13.90;51.50;;;;;;5054217;28;19913;-72
2021/03/26 03:23:07;;;;;;;;;;;13.80;53.30;;;;;;5053544;28;20058;-72
2021/03/26 03:25:33;;;;;;;;;;;13.80;53.00;;;;;;5056578;28;19923;-72
2021/03/26 03:28:14;;;;;;;;;;;13.60;52.00;;;;;;5053726;28;20375;-72
2021/03/26 03:30:50;;;;;;;;;;;13.50;52.50;;;;;;5056054;28;20333;-72
2021/03/26 03:33:19;;;;;;;;;;;13.60;52.30;;;;;;5055587;28;20249;-73
2021/03/26 03:35:49;;;;;;;;;;;13.50;53.20;;;;;;5056709;28;19917;-72
2021/03/26 03:38:15;;;;;;;;;;;13.60;53.40;;;;;;5056367;28;19929;-72
2021/03/26 03:40:50;;;;;;;;;;;13.60;53.10;;;;;;5038779;28;20250;-72
2021/03/26 03:43:23;;;;;;;;;;;13.60;52.60;;;;;;5055607;28;19924;-72
2021/03/26 03:46:03;;;;;;;;;;;13.60;53.30;;;;;;5054226;28;19912;-72
2021/03/26 03:48:43;;;;;;;;;;;13.50;52.80;;;;;;5055178;28;19915;-72
2021/03/26 03:51:09;;;;;;;;;;;13.20;53.30;;;;;;5052277;28;19908;-73
2021/03/26 03:53:38;;;;;;;;;;;13.30;53.10;;;;;;5056885;28;19904;-73
2021/03/26 03:56:09;;;;;;;;;;;13.50;54.10;;;;;;5036329;28;19924;-72
2021/03/26 03:58:37;;;;;;;;;;;13.40;53.30;;;;;;5040905;28;19909;-72
2021/03/26 04:01:03;;;;;;;;;;;13.30;52.50;;;;;;5036354;28;19948;-72
2021/03/26 04:03:35;;;;;;;;;;;13.40;53.00;;;;;;5036386;28;20298;-73
2021/03/26 04:06:03;;;;;;;;;;;13.40;52.90;;;;;;5032899;28;19924;-72
2021/03/26 04:08:51;;;;;;;;;;;13.30;53.10;;;;;;5051209;28;19987;-72
2021/03/26 04:11:27;;;;;;;;;;;13.20;53.80;;;;;;5051869;28;19952;-72
2021/03/26 04:14:06;;;;;;;;;;;13.10;53.30;;;;;;5037367;28;19909;-72
2021/03/26 04:16:32;;;;;;;;;;;13.10;54.70;;;;;;5054071;28;19927;-72
2021/03/26 04:19:04;;;;;;;;;;;13.10;53.50;;;;;;5055835;28;19999;-71
2021/03/26 04:21:34;;;;;;;;;;;13.00;54.70;;;;;;5037734;28;19915;-72
2021/03/26 04:24:06;;;;;;;;;;;12.90;55.80;;;;;;5053571;28;19909;-71
2021/03/26 04:26:37;;;;;;;;;;;12.90;56.00;;;;;;5055713;28;20003;-72
2021/03/26 04:29:18;;;;;;;;;;;12.90;55.40;;;;;;5050352;28;19963;-73
2021/03/26 04:31:47;;;;;;;;;;;13.10;56.30;;;;;;5051615;28;19912;-74
2021/03/26 04:34:14;;;;;;;;;;;13.10;55.40;;;;;;5059448;28;20330;-73
2021/03/26 04:36:58;;;;;;;;;;;13.00;55.40;;;;;;5058940;28;19912;-72
2021/03/26 04:39:33;;;;;;;;;;;12.90;56.20;;;;;;5055431;28;19913;-72
2021/03/26 04:42:08;;;;;;;;;;;12.80;55.40;;;;;;5055031;28;20288;-71
2021/03/26 04:44:34;;;;;;;;;;;12.80;55.20;;;;;;5055244;28;19917;-71
2021/03/26 04:47:00;;;;;;;;;;;12.70;55.40;;;;;;5045853;28;19912;-71
2021/03/26 04:49:26;;;;;;;;;;;12.60;56.70;;;;;;5054260;28;19916;-72
2021/03/26 04:52:00;;;;;;;;;;;12.80;57.20;;;;;;5049502;28;19917;-72
2021/03/26 04:54:33;;;;;;;;;;;12.80;56.10;;;;;;5036404;28;19915;-72
2021/03/26 04:57:25;;;;;;;;;;;12.70;55.70;;;;;;5053977;28;19908;-71
2021/03/26 04:59:55;;;;;;;;;;;12.80;55.80;;;;;;5022060;28;19938;-71
2021/03/26 05:02:22;;;;;;;;;;;12.90;57.80;;;;;;5054794;28;19908;-71
2021/03/26 05:04:50;;;;;;;;;;;13.00;56.90;;;;;;5036904;28;19909;-72
2021/03/26 05:07:21;;;;;;;;;;;13.00;58.10;;;;;;5053952;28;19909;-71
2021/03/26 05:09:50;;;;;;;;;;;13.00;56.90;;;;;;5036572;28;19982;-71
2021/03/26 05:12:22;;;;;;;;;;;12.80;57.70;;;;;;5033466;28;20452;-71
2021/03/26 05:14:51;;;;;;;;;;;12.70;57.70;;;;;;5050597;28;19909;-71
2021/03/26 05:17:21;;;;;;;;;;;12.80;57.80;;;;;;5053709;28;19923;-71
2021/03/26 05:19:50;;;;;;;;;;;12.80;57.50;;;;;;5043949;28;19923;-71
2021/03/26 05:22:16;;;;;;;;;;;12.70;57.50;;;;;;5052058;28;19913;-72
2021/03/26 05:24:48;;;;;;;;;;;12.60;58.40;;;;;;5052577;28;19920;-71
2021/03/26 05:27:15;;;;;;;;;;;12.50;59.20;;;;;;5055201;28;20225;-71
2021/03/26 05:29:41;;;;;;;;;;;12.60;57.70;;;;;;5052667;28;19959;-72
2021/03/26 05:32:10;;;;;;;;;;;12.60;57.90;;;;;;5053527;28;20368;-72
2021/03/26 05:34:41;;;;;;;;;;;12.50;58.00;;;;;;5053537;28;20007;-73
2021/03/26 05:37:13;;;;;;;;;;;12.30;58.00;;;;;;5052554;28;19924;-73
2021/03/26 05:39:40;;;;;;;;;;;12.60;57.90;;;;;;5050854;28;19909;-72
2021/03/26 05:42:09;;;;;;;;;;;12.50;59.20;;;;;;5053207;28;19920;-72
2021/03/26 05:44:55;;;;;;;;;;;12.70;58.80;;;;;;5051533;28;19996;-72
2021/03/26 05:47:40;;;;;;;;;;;12.60;57.40;;;;;;5050711;28;19923;-72
2021/03/26 05:50:25;;;;;;;;;;;12.50;57.50;;;;;;5050714;28;19920;-72
2021/03/26 05:53:00;;;;;;;;;;;12.40;57.80;;;;;;5050732;28;19909;-72
2021/03/26 05:55:26;;;;;;;;;;;12.40;57.60;;;;;;5053085;28;19912;-71
2021/03/26 05:58:07;;;;;;;;;;;12.30;57.10;;;;;;5054101;28;19996;-72
2021/03/26 06:00:39;;;;;;;;;;;12.30;57.20;;;;;;5053903;28;19912;-72
2021/03/26 06:03:25;;;;;;;;;;;12.30;57.40;;;;;;5032940;28;20205;-73
2021/03/26 06:05:57;;;;;;;;;;;12.30;58.60;;;;;;5053260;28;19919;-72
2021/03/26 06:08:49;;;;;;;;;;;12.30;57.80;;;;;;5052887;28;19913;-72
2021/03/26 06:11:40;;;;;;;;;;;12.30;57.40;;;;;;5018486;28;19909;-71
2021/03/26 06:14:12;;;;;;;;;;;12.30;57.90;;;;;;5034607;28;19916;-72
2021/03/26 06:16:38;;;;;;;;;;;12.20;58.20;;;;;;5054389;28;19916;-72
2021/03/26 06:19:22;;;;;;;;;;;12.30;58.10;;;;;;5052670;28;19913;-73
2021/03/26 06:21:48;;;;;;;;;;;12.40;58.40;;;;;;5053324;28;20360;-73
2021/03/26 06:24:40;;;;;;;;;;;12.40;59.00;;;;;;5053179;28;19916;-74
2021/03/26 06:27:09;;;;;;;;;;;12.50;58.50;;;;;;5053543;28;19908;-73
2021/03/26 06:29:49;;;;;;;;;;;12.40;57.40;;;;;;5053356;28;19946;-74
2021/03/26 06:32:21;;;;;;;;;;;12.40;58.40;;;;;;5050126;28;19912;-72
2021/03/26 06:35:07;;;;;;;;;;;12.40;58.20;;;;;;5033709;28;20304;-71
2021/03/26 06:37:39;;;;;;;;;;;12.30;58.00;;;;;;5051834;28;19920;-73
2021/03/26 06:40:17;;;;;;;;;;;12.40;58.20;;;;;;5052596;28;19909;-72
2021/03/26 06:42:43;;;;;;;;;;;12.40;58.30;;;;;;5035157;28;20231;-72
2021/03/26 06:45:27;;;;;;;;;;;12.40;58.70;;;;;;5051764;28;19923;-72
2021/03/26 06:48:11;;;;;;;;;;;12.50;58.90;;;;;;5051800;28;19909;-73
2021/03/26 06:50:40;;;;;;;;;;;12.20;57.80;;;;;;5053369;28;19909;-73
2021/03/26 06:53:18;;;;;;;;;;;12.20;58.40;;;;;;5050387;28;20314;-74
2021/03/26 06:55:46;;;;;;;;;;;12.10;58.40;;;;;;5051353;28;19913;-72
2021/03/26 06:58:48;;;;;;;;;;;12.10;58.70;;;;;;5052699;28;19970;-72
2021/03/26 07:01:20;;;;;;;;;;;12.10;58.70;;;;;;4988305;28;19914;-73
2021/03/26 07:03:55;;;;;;;;;;;12.10;58.50;;;;;;5040754;28;20004;-72
2021/03/26 07:06:40;;;;;;;;;;;12.00;58.60;;;;;;5050771;28;19912;-74
2021/03/26 07:09:12;;;;;;;;;;;12.10;58.90;;;;;;5052202;28;19919;-73
2021/03/26 07:11:58;;;;;;;;;;;11.90;59.20;;;;;;5052115;28;20358;-72
2021/03/26 07:14:34;;;;;;;;;;;12.00;59.20;;;;;;5050158;28;19913;-72
2021/03/26 07:17:13;;;;;;;;;;;11.90;58.40;;;;;;5051336;28;20270;-72
2021/03/26 07:19:53;;;;;;;;;;;11.80;59.00;;;;;;5051659;28;19967;-71
2021/03/26 07:22:41;;;;;;;;;;;11.80;59.60;;;;;;5052989;28;19909;-72
2021/03/26 07:25:23;;;;;;;;;;;11.80;59.00;;;;;;5051983;28;19932;-72
2021/03/26 07:28:09;;;;;;;;;;;11.80;59.50;;;;;;5052588;28;20001;-72
2021/03/26 07:30:36;;;;;;;;;;;11.70;59.00;;;;;;5016233;28;19916;-72
2021/03/26 07:33:08;;;;;;;;;;;11.60;59.10;;;;;;5048950;28;19909;-72
2021/03/26 07:35:37;;;;;;;;;;;11.50;58.90;;;;;;5050662;28;19916;-72
2021/03/26 07:38:22;;;;;;;;;;;11.50;58.80;;;;;;5035057;28;19909;-72
2021/03/26 07:40:54;;;;;;;;;;;11.50;58.80;;;;;;5034730;28;19944;-73
2021/03/26 07:43:39;;;;;;;;;;;11.50;58.60;;;;;;5052843;28;19908;-72
2021/03/26 07:46:05;;;;;;;;;;;11.50;58.50;;;;;;5055590;28;19912;-73
2021/03/26 07:48:48;;;;;;;;;;;11.50;58.50;;;;;;5055214;28;19915;-72
2021/03/26 07:51:26;;;;;;;;;;;11.50;58.70;;;;;;5057098;28;20258;-73
2021/03/26 07:54:01;;;;;;;;;;;11.50;58.60;;;;;;5055267;28;19916;-72
2021/03/26 07:56:45;;;;;;;;;;;11.70;60.00;;;;;;5054773;28;19913;-72
2021/03/26 07:59:30;;;;;;;;;;;11.80;59.60;;;;;;5053726;28;20499;-72
2021/03/26 08:02:17;;;;;;;;;;;11.80;59.30;;;;;;5054562;28;20330;-72
2021/03/26 08:04:43;;;;;;;;;;;11.60;59.20;;;;;;5052950;28;19916;-72
2021/03/26 08:07:28;;;;;;;;;;;11.30;59.20;;;;;;5055570;28;19915;-72
2021/03/26 08:10:07;;;;;;;;;;;11.10;60.10;;;;;;5056109;28;20255;-72
2021/03/26 08:12:33;;;;;;;;;;;11.00;59.70;;;;;;5055464;28;20362;-73
2021/03/26 08:15:13;;;;;;;;;;;11.00;59.20;;;;;;5054296;28;19912;-73
2021/03/26 08:17:43;;;;;;;;;;;11.00;58.90;;;;;;5055051;28;19916;-72
2021/03/26 08:20:26;;;;;;;;;;;11.10;59.10;;;;;;5056462;28;19913;-73
2021/03/26 08:22:55;;;;;;;;;;;11.10;59.10;;;;;;5057766;28;19916;-73
2021/03/26 08:25:23;;;;;;;;;;;11.10;58.70;;;;;;5058076;28;19919;-74
2021/03/26 08:27:55;;;;;;;;;;;11.00;58.80;;;;;;5055454;28;19971;-72
2021/03/26 08:30:22;;;;;;;;;;;11.10;59.00;;;;;;5051194;28;19944;-72
2021/03/26 08:33:03;;;;;;;;;;;11.00;58.70;;;;;;5051897;28;19967;-72
2021/03/26 08:35:47;;;;;;;;;;;10.90;58.70;;;;;;5053762;28;19917;-72
2021/03/26 08:38:31;;;;;;;;;;;10.90;59.60;;;;;;5053567;28;19966;-72
2021/03/26 08:41:06;;;;;;;;;;;11.00;59.70;;;;;;5054733;28;20415;-72
2021/03/26 08:43:34;;;;;;;;;;;11.10;60.90;;;;;;5053666;28;19932;-72
2021/03/26 08:46:08;;;;;;;;;;;11.00;60.50;;;;;;5054764;28;20274;-72
2021/03/26 08:48:46;;;;;;;;;;;10.90;60.20;;;;;;5053131;28;20441;-73
2021/03/26 08:51:18;;;;;;;;;;;10.80;61.30;;;;;;5053200;28;19923;-72
2021/03/26 08:54:02;;;;;;;;;;;10.70;60.60;;;;;;5054228;28;19912;-72
2021/03/26 08:56:31;;;;;;;;;;;10.70;60.70;;;;;;5054508;28;19927;-72
2021/03/26 08:59:16;;;;;;;;;;;10.70;61.20;;;;;;5054590;28;19955;-72
2021/03/26 09:01:46;;;;;;;;;;;10.60;61.50;;;;;;5047453;28;19923;-72
2021/03/26 09:04:30;;;;;;;;;;;10.50;61.00;;;;;;5036163;28;20269;-72
2021/03/26 09:07:16;;;;;;;;;;;10.50;61.30;;;;;;5053163;28;19999;-72
2021/03/26 09:10:00;;;;;;;;;;;10.40;61.00;;;;;;5051787;28;19986;-72
2021/03/26 09:12:35;;;;;;;;;;;10.50;62.10;;;;;;5035581;28;20219;-72
2021/03/26 09:15:19;;;;;;;;;;;10.60;61.50;;;;;;5054088;28;19909;-72
2021/03/26 09:17:52;;;;;;;;;;;10.40;60.80;;;;;;5031696;28;19912;-73
2021/03/26 09:20:18;;;;;;;;;;;10.40;61.10;;;;;;5052389;28;20386;-72
2021/03/26 09:22:54;;;;;;;;;;;10.20;60.90;;;;;;5054355;28;20027;-72
2021/03/26 09:25:28;;;;;;;;;;;10.20;61.00;;;;;;5053009;28;20062;-72
2021/03/26 09:27:56;;;;;;;;;;;10.20;61.60;;;;;;5050321;28;19916;-72
2021/03/26 09:30:42;;;;;;;;;;;10.30;61.50;;;;;;5052503;28;20247;-72
2021/03/26 09:33:13;;;;;;;;;;;10.10;60.90;;;;;;5052951;28;20050;-72
2021/03/26 09:35:54;;;;;;;;;;;10.20;62.30;;;;;;5036444;28;19997;-72
2021/03/26 09:38:20;;;;;;;;;;;10.30;61.60;;;;;;5053139;28;19944;-72
2021/03/26 09:40:48;;;;;;;;;;;10.30;61.60;;;;;;5051796;28;20060;-73
2021/03/26 09:43:30;;;;;;;;;;;10.10;62.30;;;;;;5052235;28;20350;-72
2021/03/26 09:45:59;;;;;;;;;;;10.20;62.30;;;;;;5053702;28;19938;-72
2021/03/26 09:48:46;;;;;;;;;;;10.10;62.50;;;;;;5054335;28;19963;-72
2021/03/26 09:51:31;;;;;;;;;;;10.00;62.10;;;;;;5049488;28;19952;-72
2021/03/26 09:54:05;;;;;;;;;;;10.10;62.60;;;;;;5053253;28;19913;-72
2021/03/26 09:56:57;;;;;;;;;;;10.00;63.40;;;;;;5036752;28;19919;-72
2021/03/26 09:59:41;;;;;;;;;;;10.00;62.60;;;;;;5030729;28;19921;-72
2021/03/26 10:02:10;;;;;;;;;;;10.00;62.50;;;;;;5053383;28;19960;-72
2021/03/26 10:05:02;;;;;;;;;;;9.90;63.20;;;;;;5054610;28;19959;-72
2021/03/26 10:07:51;;;;;;;;;;;9.80;62.40;;;;;;5048182;28;19921;-72
2021/03/26 10:12:57;;;;;;;;;;;9.90;63.60;;;;;;5054597;28;19951;-72
2021/03/26 10:15:42;;;;;;;;;;;9.80;63.70;;;;;;5056295;28;20318;-72
2021/03/26 10:18:13;;;;;;;;;;;9.80;63.30;;;;;;5039347;28;20298;-73
2021/03/26 10:20:43;;;;;;;;;;;9.60;62.90;;;;;;5055988;28;19919;-72
2021/03/26 10:23:13;;;;;;;;;;;9.70;63.60;;;;;;5052975;28;19956;-72
2021/03/26 10:25:44;;;;;;;;;;;9.80;63.70;;;;;;5051930;28;20223;-72
2021/03/26 10:28:10;;;;;;;;;;;9.80;64.00;;;;;;5053477;28;20224;-73
2021/03/26 10:30:41;;;;;;;;;;;9.80;63.90;;;;;;5054481;28;20003;-72
2021/03/26 10:33:09;;;;;;;;;;;9.70;63.30;;;;;;5052651;28;19909;-72
2021/03/26 10:35:38;;;;;;;;;;;9.70;63.70;;;;;;5053843;28;19913;-72
2021/03/26 10:38:14;;;;;;;;;;;9.70;64.00;;;;;;5052305;28;19916;-72
2021/03/26 10:40:57;;;;;;;;;;;9.60;64.60;;;;;;5053180;28;19916;-73
2021/03/26 10:43:42;;;;;;;;;;;9.60;63.70;;;;;;5053748;28;20253;-72
2021/03/26 10:46:14;;;;;;;;;;;9.60;64.00;;;;;;5035164;28;19995;-72
2021/03/26 10:48:43;;;;;;;;;;;9.50;64.20;;;;;;5035770;28;19908;-72
2021/03/26 10:51:27;;;;;;;;;;;9.50;64.90;;;;;;5053701;28;20304;-72
2021/03/26 10:53:59;;;;;;;;;;;9.50;64.80;;;;;;5052664;28;20207;-72
2021/03/26 10:56:25;;;;;;;;;;;9.50;64.50;;;;;;5035041;28;20379;-72
2021/03/26 10:58:56;;;;;;;;;;;9.50;64.90;;;;;;5053416;28;19909;-72
2021/03/26 11:01:24;;;;;;;;;;;9.40;64.60;;;;;;5052640;28;19911;-72
2021/03/26 11:03:56;;;;;;;;;;;9.60;64.70;;;;;;5053241;28;20241;-72
2021/03/26 11:06:48;;;;;;;;;;;9.60;64.80;;;;;;5035788;28;19908;-72
2021/03/26 11:09:19;;;;;;;;;;;9.50;64.90;;;;;;5049704;28;20331;-72
2021/03/26 11:11:54;;;;;;;;;;;9.40;64.30;;;;;;5051309;28;19917;-72
2021/03/26 11:14:38;;;;;;;;;;;9.40;64.90;;;;;;5053578;28;19999;-74
2021/03/26 11:17:10;;;;;;;;;;;9.30;64.40;;;;;;5045103;28;19912;-72
2021/03/26 11:19:53;;;;;;;;;;;9.30;65.10;;;;;;5040117;28;19904;-72
2021/03/26 11:22:22;;;;;;;;;;;9.30;65.20;;;;;;5057020;28;19909;-72
2021/03/26 11:25:09;;;;;;;;;;;9.40;64.70;;;;;;5039641;28;20327;-72
2021/03/26 11:27:44;;;;;;;;;;;9.40;64.40;;;;;;5057298;28;20320;-72
2021/03/26 11:30:10;;;;;;;;;;;9.40;64.60;;;;;;5056497;28;19905;-72
2021/03/26 11:32:38;;;;;;;;;;;9.40;64.90;;;;;;5047045;28;20015;-72
2021/03/26 11:35:12;;;;;;;;;;;9.40;65.10;;;;;;5056335;28;19986;-72
2021/03/26 11:37:42;;;;;;;;;;;9.30;64.60;;;;;;5056423;28;19931;-72
2021/03/26 11:40:15;;;;;;;;;;;9.20;65.10;;;;;;5054871;28;19909;-72
2021/03/26 11:42:49;;;;;;;;;;;9.10;64.50;;;;;;5054251;28;20426;-72
2021/03/26 11:45:47;;;;;;;;;;;9.00;64.40;;;;;;5056255;28;19912;-72
2021/03/26 11:48:20;;;;;;;;;;;9.00;64.50;;;;;;5001383;28;20296;-73
2021/03/26 11:50:49;;;;;;;;;;;9.00;64.80;;;;;;5039339;28;19916;-72
2021/03/26 11:53:19;;;;;;;;;;;9.00;64.80;;;;;;5055473;28;19909;-73
2021/03/26 11:55:53;;;;;;;;;;;9.20;65.80;;;;;;5056005;28;19919;-72
2021/03/26 11:58:32;;;;;;;;;;;9.30;65.10;;;;;;5056242;28;19931;-73
2021/03/26 12:01:03;;;;;;;;;;;9.40;64.90;;;;;;5055452;28;19955;-72
2021/03/26 12:03:39;;;;;;;;;;;9.30;64.70;;;;;;5055654;28;20004;-72
2021/03/26 12:06:15;;;;;;;;;;;9.30;64.20;;;;;;5055598;28;19939;-72
2021/03/26 12:08:50;;;;;;;;;;;9.30;64.80;;;;;;5058502;28;19991;-72
2021/03/26 12:11:22;;;;;;;;;;;9.00;63.80;;;;;;5058716;28;20338;-73
2021/03/26 12:13:57;;;;;;;;;;;8.80;64.40;;;;;;5056541;28;20330;-72
2021/03/26 12:16:23;;;;;;;;;;;8.90;65.00;;;;;;5054869;28;19923;-72
2021/03/26 12:18:54;;;;;;;;;;;8.70;64.40;;;;;;5056094;28;19904;-72
2021/03/26 12:21:29;;;;;;;;;;;8.70;64.90;;;;;;5054637;28;19919;-72
2021/03/26 12:24:19;;;;;;;;;;;8.70;64.90;;;;;;5037760;28;20322;-72
2021/03/26 12:26:52;;;;;;;;;;;8.70;64.90;;;;;;5056120;28;19909;-72
2021/03/26 12:29:29;;;;;;;;;;;8.60;64.70;;;;;;5021674;28;20287;-72
2021/03/26 12:32:04;;;;;;;;;;;8.50;64.50;;;;;;5054931;28;19923;-72
2021/03/26 12:34:36;;;;;;;;;;;8.50;64.40;;;;;;5053862;28;19909;-72
2021/03/26 12:37:06;;;;;;;;;;;8.60;65.10;;;;;;5055905;28;19919;-72
2021/03/26 12:39:32;;;;;;;;;;;8.80;66.20;;;;;;5054786;28;19908;-72
2021/03/26 12:42:03;;;;;;;;;;;8.70;64.50;;;;;;5053493;28;20223;-72
2021/03/26 12:44:32;;;;;;;;;;;8.70;65.00;;;;;;5055164;28;19951;-72
2021/03/26 12:46:58;;;;;;;;;;;8.80;66.20;;;;;;5056014;28;19905;-72
2021/03/26 12:49:28;;;;;;;;;;;8.80;65.70;;;;;;5036046;28;19923;-72
2021/03/26 12:51:58;;;;;;;;;;;8.90;65.40;;;;;;5053394;28;19917;-72
2021/03/26 12:54:36;;;;;;;;;;;9.00;66.30;;;;;;5036415;28;19994;-72
2021/03/26 12:57:02;;;;;;;;;;;9.00;65.70;;;;;;5053990;28;20003;-72
2021/03/26 12:59:38;;;;;;;;;;;9.00;66.00;;;;;;5036702;28;19920;-72
2021/03/26 13:02:22;;;;;;;;;;;8.90;64.70;;;;;;5053794;28;20296;-72
2021/03/26 13:04:51;;;;;;;;;;;9.00;66.60;;;;;;5052894;28;19916;-72
2021/03/26 13:07:29;;;;;;;;;;;9.10;65.50;;;;;;5055038;28;20238;-72
2021/03/26 13:10:14;;;;;;;;;;;8.80;65.50;;;;;;5051464;28;20066;-72
2021/03/26 13:12:43;;;;;;;;;;;9.00;66.40;;;;;;5055417;28;20334;-72
2021/03/26 13:15:09;;;;;;;;;;;9.10;66.00;;;;;;5036993;28;19916;-72
2021/03/26 13:17:36;;;;;;;;;;;8.80;66.10;;;;;;5044855;28;19909;-72
2021/03/26 13:20:29;;;;;;;;;;;9.00;66.90;;;;;;5050488;28;19912;-72
2021/03/26 13:23:01;;;;;;;;;;;9.10;66.30;;;;;;4983148;28;19917;-72
2021/03/26 13:25:32;;;;;;;;;;;8.80;66.60;;;;;;4999816;28;19928;-72
2021/03/26 13:28:05;;;;;;;;;;;9.10;66.50;;;;;;5000499;28;20247;-72
2021/03/26 13:30:31;;;;;;;;;;;8.90;65.80;;;;;;5001902;28;20023;-72
2021/03/26 13:32:59;;;;;;;;;;;8.80;65.80;;;;;;5002047;28;19913;-72
2021/03/26 13:35:33;;;;;;;;;;;8.80;65.70;;;;;;5001488;28;19941;-72
2021/03/26 13:38:00;;;;;;;;;;;8.70;66.30;;;;;;5000406;28;19920;-72
2021/03/26 13:40:27;;;;;;;;;;;8.60;66.60;;;;;;5000957;28;20363;-72
2021/03/26 13:43:03;;;;;;;;;;;8.60;66.00;;;;;;5001449;28;19917;-72
2021/03/26 13:45:29;;;;;;;;;;;8.60;66.50;;;;;;5001530;28;19961;-72
2021/03/26 13:48:00;;;;;;;;;;;8.60;66.10;;;;;;5002098;28;19909;-72
2021/03/26 13:50:33;;;;;;;;;;;8.80;66.70;;;;;;5002339;28;19984;-72
2021/03/26 13:52:59;;;;;;;;;;;8.70;66.50;;;;;;5002756;28;19910;-72
2021/03/26 13:55:36;;;;;;;;;;;8.60;65.70;;;;;;5001879;28;20083;-73
2021/03/26 13:58:23;;;;;;;;;;;8.50;66.90;;;;;;5000384;28;19914;-74
2021/03/26 14:00:55;;;;;;;;;;;8.60;65.60;;;;;;5035342;28;19909;-75
2021/03/26 14:03:25;;;;;;;;;;;8.50;66.20;;;;;;5057199;28;19912;-72
2021/03/26 14:06:09;;;;;;;;;;;8.60;65.90;;;;;;5049969;28;19912;-72
2021/03/26 14:08:53;;;;;;;;;;;8.70;65.40;;;;;;5053144;28;19962;-72
2021/03/26 14:11:45;;;;;;;;;;;8.60;65.10;;;;;;5053038;28;19955;-72
2021/03/26 14:14:15;;;;;;;;;;;8.60;65.10;;;;;;5047894;28;19912;-72
2021/03/26 14:16:41;;;;;;;;;;;8.50;65.20;;;;;;5052763;28;20072;-72
2021/03/26 14:19:20;;;;;;;;;;;8.70;66.50;;;;;;5036230;28;20011;-72
2021/03/26 14:21:52;;;;;;;;;;;8.90;65.40;;;;;;5051833;28;20378;-72
2021/03/26 14:24:56;;;;;;;;;;;8.80;65.80;;;;;;5051695;28;19908;-72
2021/03/26 14:27:25;;;;;;;;;;;8.80;66.10;;;;;;4952770;28;20400;-73
2021/03/26 14:29:54;;;;;;;;;;;8.90;67.60;;;;;;4937760;29;20001;-73
2021/03/26 14:32:22;;;;;;;;;;;9.00;67.40;;;;;;5002980;28;20388;-73
2021/03/26 14:34:59;;;;;;;;;;;9.10;67.60;;;;;;5049888;28;19909;-72
2021/03/26 14:37:31;;;;;;;;;;;9.10;67.30;;;;;;5032559;28;20279;-73
2021/03/26 14:40:23;;;;;;;;;;;9.00;67.10;;;;;;5050110;28;20007;-73
2021/03/26 14:42:56;;;;;;;;;;;9.20;67.70;;;;;;5047270;28;19999;-73
2021/03/26 14:45:25;;;;;;;;;;;9.10;66.40;;;;;;5052397;28;20354;-74
2021/03/26 14:47:59;;;;;;;;;;;9.30;67.40;;;;;;5050754;28;19909;-72
2021/03/26 14:50:26;;;;;;;;;;;9.30;66.70;;;;;;5030715;28;20250;-72
2021/03/26 14:52:54;;;;;;;;;;;9.30;66.80;;;;;;5050030;28;20388;-72
2021/03/26 14:55:40;;;;;;;;;;;9.30;66.70;;;;;;5056946;28;19940;-72
2021/03/26 14:58:24;;;;;;;;;;;9.30;66.80;;;;;;5055214;28;19924;-72
2021/03/26 15:01:09;;;;;;;;;;;9.50;67.10;;;;;;5055780;28;20004;-72